createdAt,value
2022-09-12T00:00:41.561Z,13.18
2022-09-12T00:03:27.450Z,9.52
2022-09-12T00:06:22.875Z,10.57
2022-09-12T00:09:14.587Z,9.48
2022-09-12T00:12:00.779Z,9.80
2022-09-12T00:14:46.719Z,11.13
2022-09-12T00:17:35.230Z,9.70
2022-09-12T00:20:21.235Z,12.55
2022-09-12T00:23:07.073Z,10.10
2022-09-12T00:25:53.218Z,10.85
2022-09-12T00:28:40.653Z,10.93
2022-09-12T00:31:27.284Z,9.70
2022-09-12T00:34:13.800Z,9.52
2022-09-12T00:36:59.769Z,10.65
2022-09-12T00:39:45.719Z,12.48
2022-09-12T00:42:31.612Z,11.57
2022-09-12T00:45:30.588Z,15.70
2022-09-12T00:48:21.774Z,12.80
2022-09-12T00:51:08.637Z,10.07
2022-09-12T00:53:55.784Z,11.73
2022-09-12T00:56:43.765Z,11.35
2022-09-12T00:59:49.843Z,10.40
2022-09-12T01:02:36.136Z,11.95
2022-09-12T01:05:23.675Z,10.98
2022-09-12T01:08:09.651Z,10.02
2022-09-12T01:10:56.804Z,15.32
2022-09-12T01:13:44.301Z,14.73
2022-09-12T01:16:30.235Z,11.52
2022-09-12T01:19:46.632Z,13.85
2022-09-12T01:22:44.776Z,13.23
2022-09-12T01:25:30.945Z,11.90
2022-09-12T01:28:35.752Z,12.70
2022-09-12T01:31:47.636Z,14.27
2022-09-12T01:34:33.392Z,12.75
2022-09-12T01:37:28.573Z,13.05
2022-09-12T01:40:43.995Z,10.95
2022-09-12T01:43:36.769Z,10.80
2022-09-12T01:46:45.493Z,11.75
2022-09-12T01:49:52.921Z,14.40
2022-09-12T01:52:55.566Z,14.38
2022-09-12T01:55:49.981Z,13.38
2022-09-12T01:58:43.770Z,14.18
2022-09-12T02:01:34.684Z,13.73
2022-09-12T02:04:24.509Z,11.82
2022-09-12T02:07:18.632Z,13.73
2022-09-12T02:10:13.068Z,12.80
2022-09-12T02:13:04.244Z,15.23
2022-09-12T02:15:54.721Z,14.20
2022-09-12T02:18:45.826Z,15.80
2022-09-12T02:21:33.108Z,15.98
2022-09-12T02:24:21.316Z,13.10
2022-09-12T02:27:15.293Z,15.57
2022-09-12T02:30:01.627Z,14.93
2022-09-12T02:33:06.561Z,12.05
2022-09-12T02:36:26.920Z,15.27
2022-09-12T02:39:13.009Z,12.45
2022-09-12T02:42:01.027Z,14.25
2022-09-12T02:44:46.927Z,11.20
2022-09-12T02:47:38.068Z,11.73
2022-09-12T02:50:24.472Z,14.57
2022-09-12T02:53:11.333Z,15.13
2022-09-12T02:55:57.480Z,15.30
2022-09-12T02:58:44.058Z,12.07
2022-09-12T03:01:42.395Z,12.45
2022-09-12T03:05:16.076Z,17.95
2022-09-12T03:11:15.989Z,18.88
2022-09-12T03:14:49.866Z,14.23
2022-09-12T03:17:52.450Z,14.90
2022-09-12T03:20:38.302Z,15.55
2022-09-12T03:23:25.653Z,15.95
2022-09-12T03:26:26.669Z,16.88
2022-09-12T03:29:13.517Z,17.77
2022-09-12T03:31:59.551Z,17.40
2022-09-12T03:34:45.704Z,14.52
2022-09-12T03:37:31.892Z,18.17
2022-09-12T03:40:18.282Z,14.13
2022-09-12T03:43:05.781Z,17.90
2022-09-12T03:45:53.487Z,15.25
2022-09-12T03:48:40.676Z,17.40
2022-09-12T03:51:26.587Z,15.63
2022-09-12T03:54:12.587Z,17.77
2022-09-12T03:56:58.546Z,16.13
2022-09-12T03:59:44.597Z,12.77
2022-09-12T04:02:30.696Z,16.95
2022-09-12T04:05:16.556Z,15.82
2022-09-12T04:08:02.792Z,14.80
2022-09-12T04:10:48.993Z,17.55
2022-09-12T04:13:35.541Z,14.85
2022-09-12T04:16:21.814Z,17.83
2022-09-12T04:19:07.891Z,17.58
2022-09-12T04:21:53.814Z,15.80
2022-09-12T04:24:39.692Z,16.60
2022-09-12T04:27:25.562Z,12.88
2022-09-12T04:30:11.930Z,13.13
2022-09-12T04:32:57.914Z,16.20
2022-09-12T04:35:45.361Z,21.48
2022-09-12T04:38:31.660Z,14.20
2022-09-12T04:41:22.183Z,16.77
2022-09-12T04:44:11.706Z,15.38
2022-09-12T04:46:57.787Z,12.20
2022-09-12T04:49:43.793Z,16.50
2022-09-12T04:52:29.847Z,16.98
2022-09-12T04:55:15.885Z,16.80
2022-09-12T04:58:02.480Z,14.85
2022-09-12T05:00:49.030Z,16.20
2022-09-12T05:03:35.188Z,15.00
2022-09-12T05:06:26.684Z,14.77
2022-09-12T05:09:14.203Z,15.75
2022-09-12T05:12:05.255Z,19.80
2022-09-12T05:14:51.917Z,15.40
2022-09-12T05:17:38.064Z,16.60
2022-09-12T05:20:24.030Z,18.23
2022-09-12T05:23:09.877Z,15.43
2022-09-12T05:25:57.988Z,12.88
2022-09-12T05:28:44.318Z,16.25
2022-09-12T05:31:30.068Z,14.88
2022-09-12T05:34:15.979Z,17.48
2022-09-12T05:37:02.001Z,18.02
2022-09-12T05:39:48.483Z,15.10
2022-09-12T05:42:34.358Z,13.32
2022-09-12T05:45:21.214Z,14.75
2022-09-12T05:48:07.156Z,17.25
2022-09-12T05:50:53.029Z,14.27
2022-09-12T05:53:40.326Z,13.63
2022-09-12T05:56:28.293Z,13.48
2022-09-12T05:59:20.049Z,14.23
2022-09-12T06:02:06.483Z,13.15
2022-09-12T06:04:52.354Z,12.32
2022-09-12T06:07:38.409Z,13.85
2022-09-12T06:10:26.354Z,13.48
2022-09-12T06:13:12.834Z,13.25
2022-09-12T06:16:16.790Z,15.63
2022-09-12T06:19:06.990Z,12.95
2022-09-12T06:21:53.429Z,13.90
2022-09-12T06:24:39.707Z,15.02
2022-09-12T06:27:25.469Z,16.67
2022-09-12T06:30:12.398Z,11.77
2022-09-12T06:32:58.141Z,14.02
2022-09-12T06:35:44.182Z,18.75
2022-09-12T06:38:31.289Z,13.77
2022-09-12T06:41:17.385Z,11.55
2022-09-12T06:44:04.058Z,14.07
2022-09-12T06:46:50.294Z,11.13
2022-09-12T06:49:36.450Z,13.77
2022-09-12T06:52:23.031Z,11.95
2022-09-12T06:55:09.320Z,14.50
2022-09-12T06:57:55.623Z,11.88
2022-09-12T07:00:42.086Z,10.45
2022-09-12T07:03:28.247Z,16.17
2022-09-12T07:06:17.397Z,13.50
2022-09-12T07:09:05.096Z,11.95
2022-09-12T07:11:51.158Z,13.50
2022-09-12T07:14:37.093Z,11.15
2022-09-12T07:17:22.979Z,12.38
2022-09-12T07:20:08.985Z,12.98
2022-09-12T07:23:00.093Z,12.13
2022-09-12T07:25:53.666Z,11.25
2022-09-12T07:28:40.127Z,11.52
2022-09-12T07:31:27.801Z,11.73
2022-09-12T07:34:14.022Z,11.20
2022-09-12T07:37:00.556Z,14.68
2022-09-12T07:39:46.625Z,10.50
2022-09-12T07:42:32.599Z,12.07
2022-09-12T07:45:18.482Z,12.80
2022-09-12T07:48:04.824Z,13.15
2022-09-12T07:51:01.612Z,13.45
2022-09-12T07:53:49.034Z,10.00
2022-09-12T07:56:38.855Z,11.00
2022-09-12T07:59:48.889Z,11.48
2022-09-12T08:02:31.877Z,9.88
2022-09-12T08:05:17.790Z,10.30
2022-09-12T08:08:03.946Z,13.27
2022-09-12T08:10:49.712Z,11.98
2022-09-12T08:13:37.398Z,14.57
2022-09-12T08:16:29.601Z,13.70
2022-09-12T08:19:15.634Z,8.50
2022-09-12T08:22:01.419Z,7.75
2022-09-12T08:24:47.176Z,9.98
2022-09-12T08:27:33.092Z,11.40
2022-09-12T08:30:18.917Z,9.05
2022-09-12T08:33:05.003Z,6.50
2022-09-12T08:35:50.901Z,12.88
2022-09-12T08:38:38.365Z,7.60
2022-09-12T08:41:39.130Z,8.18
2022-09-12T08:44:24.981Z,6.35
2022-09-12T08:47:19.978Z,6.07
2022-09-12T08:50:15.336Z,4.78
2022-09-12T08:53:17.296Z,5.97
2022-09-12T08:56:04.833Z,6.18
2022-09-12T08:58:51.093Z,8.40
2022-09-12T09:01:45.510Z,6.38
2022-09-12T09:04:56.800Z,3.60
2022-09-12T09:08:14.364Z,3.63
2022-09-12T09:11:14.270Z,6.05
2022-09-12T09:14:30.472Z,6.20
2022-09-12T09:17:35.362Z,5.82
2022-09-12T09:20:48.208Z,4.07
2022-09-12T09:23:45.028Z,3.03
2022-09-12T09:26:48.544Z,2.67
2022-09-12T09:29:41.356Z,1.50
2022-09-12T09:32:36.245Z,1.60
2022-09-12T09:35:44.914Z,4.32
2022-09-12T09:38:54.306Z,1.65
2022-09-12T09:42:10.270Z,4.53
2022-09-12T09:44:58.790Z,3.47
2022-09-12T09:47:58.177Z,2.30
2022-09-12T09:50:45.463Z,2.20
2022-09-12T09:54:10.364Z,3.55
2022-09-12T09:56:56.333Z,1.98
2022-09-12T09:59:42.275Z,1.63
2022-09-12T10:02:28.279Z,3.97
2022-09-12T10:05:17.341Z,6.88
2022-09-12T10:08:04.674Z,2.42
2022-09-12T10:11:23.013Z,1.52
2022-09-12T10:14:37.163Z,2.72
2022-09-12T10:17:34.182Z,1.60
2022-09-12T10:20:34.483Z,1.73
2022-09-12T10:23:37.292Z,2.55
2022-09-12T10:26:23.333Z,2.33
2022-09-12T10:29:17.230Z,4.78
2022-09-12T10:32:05.775Z,1.45
2022-09-12T10:34:55.308Z,1.63
2022-09-12T10:37:41.855Z,5.90
2022-09-12T10:40:32.677Z,5.13
2022-09-12T10:43:27.517Z,2.10
2022-09-12T10:46:16.664Z,3.97
2022-09-12T10:49:14.905Z,2.03
2022-09-12T10:52:17.552Z,4.40
2022-09-12T10:55:03.609Z,2.95
2022-09-12T10:58:12.311Z,2.95
2022-09-12T11:01:12.282Z,3.38
2022-09-12T11:04:35.440Z,2.45
2022-09-12T11:07:39.504Z,3.03
2022-09-12T11:10:31.954Z,5.03
2022-09-12T11:13:38.940Z,3.20
2022-09-12T11:16:42.995Z,3.15
2022-09-12T11:19:44.311Z,2.45
2022-09-12T11:22:49.089Z,4.15
2022-09-12T11:25:44.574Z,3.10
2022-09-12T11:28:45.330Z,3.20
2022-09-12T11:31:42.045Z,4.18
2022-09-12T11:35:03.006Z,3.45
2022-09-12T11:38:04.978Z,3.50
2022-09-12T11:41:00.478Z,5.17
2022-09-12T11:44:05.170Z,4.57
2022-09-12T11:46:52.211Z,4.45
2022-09-12T11:49:44.294Z,3.30
2022-09-12T11:52:35.736Z,3.43
2022-09-12T11:55:30.284Z,2.95
2022-09-12T12:03:07.582Z,3.25
2022-09-12T12:06:21.513Z,5.30
2022-09-12T12:09:07.639Z,5.50
2022-09-12T12:11:57.833Z,4.32
2022-09-12T12:14:47.054Z,2.83
2022-09-12T12:17:33.580Z,4.53
2022-09-12T12:20:19.801Z,2.90
2022-09-12T12:23:06.047Z,3.33
2022-09-12T12:25:57.371Z,3.45
2022-09-12T12:28:49.553Z,3.13
2022-09-12T12:32:10.445Z,4.30
2022-09-12T12:35:02.509Z,6.40
2022-09-12T12:37:52.080Z,4.97
2022-09-12T12:40:38.219Z,3.55
2022-09-12T12:43:32.254Z,4.10
2022-09-12T12:46:20.489Z,2.35
2022-09-12T12:49:30.152Z,3.50
2022-09-12T12:52:17.544Z,2.45
2022-09-12T12:55:05.224Z,4.38
2022-09-12T12:57:52.337Z,6.75
2022-09-12T13:00:40.173Z,5.30
2022-09-12T13:03:31.089Z,2.67
2022-09-12T13:06:36.207Z,2.70
2022-09-12T13:09:48.165Z,3.53
2022-09-12T13:12:36.777Z,2.43
2022-09-12T13:15:42.894Z,2.42
2022-09-12T13:18:49.288Z,2.85
2022-09-12T13:21:35.535Z,3.53
2022-09-12T13:24:22.961Z,4.60
2022-09-12T13:27:24.844Z,4.93
2022-09-12T13:30:15.577Z,3.17
2022-09-12T13:33:48.710Z,3.85
2022-09-12T13:37:07.989Z,3.28
2022-09-12T13:40:33.469Z,3.88
2022-09-12T13:43:27.224Z,2.10
2022-09-12T13:46:17.683Z,4.63
2022-09-12T13:49:19.078Z,4.35
2022-09-12T13:52:08.846Z,2.27
2022-09-12T13:54:56.939Z,2.50
2022-09-12T13:57:43.161Z,6.28
2022-09-12T14:00:32.224Z,3.22
2022-09-12T14:04:10.117Z,2.90
2022-09-12T14:06:57.026Z,4.03
2022-09-12T14:09:45.191Z,9.35
2022-09-12T14:12:42.750Z,3.08
2022-09-12T14:15:33.712Z,4.05
2022-09-12T14:18:26.300Z,5.00
2022-09-12T14:21:27.220Z,4.80
2022-09-12T14:24:14.848Z,4.18
2022-09-12T14:27:01.192Z,2.38
2022-09-12T14:29:47.519Z,2.35
2022-09-12T14:32:33.596Z,5.93
2022-09-12T14:35:20.417Z,3.53
2022-09-12T14:38:08.763Z,2.97
2022-09-12T14:41:03.061Z,3.53
2022-09-12T14:43:52.980Z,3.28
2022-09-12T14:46:40.248Z,5.38
2022-09-12T14:49:35.256Z,5.82
2022-09-12T14:52:30.157Z,4.45
2022-09-12T14:55:16.257Z,3.90
2022-09-12T14:58:15.600Z,2.65
2022-09-12T15:01:22.970Z,4.28
2022-09-12T15:04:08.803Z,5.57
2022-09-12T15:06:54.687Z,3.20
2022-09-12T15:09:45.595Z,3.92
2022-09-12T15:15:20.954Z,3.00
2022-09-12T15:18:07.385Z,2.95
2022-09-12T15:20:58.804Z,4.57
2022-09-12T15:23:49.994Z,2.78
2022-09-12T15:26:36.503Z,3.95
2022-09-12T15:29:22.437Z,4.93
2022-09-12T15:32:15.090Z,6.15
2022-09-12T15:35:00.937Z,3.72
2022-09-12T15:37:47.330Z,4.35
2022-09-12T15:40:33.477Z,3.50
2022-09-12T15:43:20.897Z,3.33
2022-09-12T15:46:07.221Z,3.65
2022-09-12T15:48:53.281Z,3.78
2022-09-12T15:51:40.070Z,4.13
2022-09-12T15:54:26.713Z,8.93
2022-09-12T15:57:12.514Z,3.80
2022-09-12T15:59:58.624Z,4.45
2022-09-12T16:02:46.279Z,6.45
2022-09-12T16:05:33.385Z,2.78
2022-09-12T16:08:19.563Z,4.05
2022-09-12T16:11:08.776Z,5.20
2022-09-12T16:13:56.775Z,3.45
2022-09-12T16:16:43.505Z,3.22
2022-09-12T16:19:29.413Z,3.88
2022-09-12T16:22:15.288Z,2.90
2022-09-12T16:25:01.332Z,4.47
2022-09-12T16:27:47.205Z,5.03
2022-09-12T16:30:34.023Z,4.75
2022-09-12T16:33:20.019Z,5.13
2022-09-12T16:36:08.619Z,3.90
2022-09-12T16:38:54.614Z,4.50
2022-09-12T16:41:42.763Z,4.50
2022-09-12T16:44:28.901Z,4.68
2022-09-12T16:47:15.278Z,8.70
2022-09-12T16:50:01.266Z,4.88
2022-09-12T16:52:47.089Z,5.38
2022-09-12T16:55:33.006Z,4.70
2022-09-12T16:58:19.040Z,4.55
2022-09-12T17:01:19.672Z,4.82
2022-09-12T17:04:06.838Z,5.57
2022-09-12T17:06:52.774Z,6.70
2022-09-12T17:09:38.731Z,5.40
2022-09-12T17:12:24.739Z,6.40
2022-09-12T17:15:10.797Z,5.57
2022-09-12T17:17:57.228Z,9.32
2022-09-12T17:20:43.333Z,10.88
2022-09-12T17:23:29.868Z,11.40
2022-09-12T17:26:15.856Z,13.45
2022-09-12T17:29:02.261Z,21.80
2022-09-12T17:31:48.912Z,10.50
2022-09-12T17:34:34.848Z,13.43
2022-09-12T17:37:21.832Z,9.38
2022-09-12T17:40:09.574Z,9.88
2022-09-12T17:42:56.656Z,8.65
2022-09-12T17:45:42.991Z,5.85
2022-09-12T17:48:29.222Z,7.00
2022-09-12T17:51:15.286Z,12.85
2022-09-12T17:54:04.741Z,11.43
2022-09-12T17:56:51.950Z,13.07
2022-09-12T17:59:37.825Z,19.58
2022-09-12T18:02:23.928Z,16.52
2022-09-12T18:05:10.255Z,16.40
2022-09-12T18:07:56.311Z,11.50
2022-09-12T18:10:42.311Z,15.18
2022-09-12T18:13:28.318Z,11.13
2022-09-12T18:16:14.663Z,15.05
2022-09-12T18:19:01.497Z,18.65
2022-09-12T18:21:47.528Z,10.02
2022-09-12T18:24:33.922Z,15.70
2022-09-12T18:27:20.022Z,18.60
2022-09-12T18:30:22.238Z,10.65
2022-09-12T18:33:08.425Z,15.45
2022-09-12T18:35:54.540Z,9.85
2022-09-12T18:38:41.466Z,7.18
2022-09-12T18:41:28.997Z,7.63
2022-09-12T18:44:15.304Z,11.20
2022-09-12T18:47:02.294Z,10.75
2022-09-12T18:49:48.596Z,8.63
2022-09-12T18:52:34.553Z,8.07
2022-09-12T18:55:20.928Z,12.40
2022-09-12T18:58:06.756Z,7.75
2022-09-12T19:00:52.697Z,9.10
2022-09-12T19:03:38.604Z,7.32
2022-09-12T19:06:26.844Z,11.18
2022-09-12T19:09:15.296Z,7.18
2022-09-12T19:12:01.586Z,12.18
2022-09-12T19:14:47.814Z,14.25
2022-09-12T19:17:33.733Z,12.02
2022-09-12T19:20:19.552Z,11.10
2022-09-12T19:23:05.528Z,13.93
2022-09-12T19:25:59.096Z,11.00
2022-09-12T19:28:45.477Z,13.23
2022-09-12T19:31:32.155Z,12.70
2022-09-12T19:34:18.392Z,8.02
2022-09-12T19:37:04.577Z,9.85
2022-09-12T19:39:50.593Z,12.75
2022-09-12T19:42:36.383Z,11.65
2022-09-12T19:45:22.133Z,10.43
2022-09-12T19:48:08.239Z,12.48
2022-09-12T19:51:01.579Z,10.10
2022-09-12T19:53:48.566Z,11.38
2022-09-12T19:56:34.385Z,9.55
2022-09-12T19:59:20.405Z,9.55
2022-09-12T20:02:06.629Z,7.88
2022-09-12T20:04:52.395Z,10.38
2022-09-12T20:07:38.450Z,6.32
2022-09-12T20:10:24.587Z,11.95
2022-09-12T20:13:10.665Z,8.15
2022-09-12T20:15:56.684Z,9.10
2022-09-12T20:18:43.636Z,10.07
2022-09-12T20:21:38.612Z,8.68
2022-09-12T20:24:32.926Z,10.00
2022-09-12T20:27:19.616Z,14.05
2022-09-12T20:30:06.104Z,10.18
2022-09-12T20:32:51.980Z,13.13
2022-09-12T20:35:38.014Z,10.30
2022-09-12T20:38:24.210Z,9.57
2022-09-12T20:41:11.625Z,10.73
2022-09-12T20:43:57.884Z,10.57
2022-09-12T20:46:43.925Z,10.27
2022-09-12T20:49:30.167Z,12.52
2022-09-12T20:52:16.070Z,9.82
2022-09-12T20:55:02.086Z,14.23
2022-09-12T20:57:50.117Z,9.90
2022-09-12T21:00:38.462Z,10.82
2022-09-12T21:03:25.548Z,12.27
2022-09-12T21:06:17.011Z,11.32
2022-09-12T21:09:03.046Z,10.90
2022-09-12T21:11:49.356Z,10.30
2022-09-12T21:14:35.109Z,8.95
2022-09-12T21:17:21.204Z,10.38
2022-09-12T21:20:11.256Z,7.05
2022-09-12T21:22:57.757Z,10.15
2022-09-12T21:25:52.060Z,12.50
2022-09-12T21:28:38.529Z,9.20
2022-09-12T21:31:25.650Z,10.95
2022-09-12T21:34:12.114Z,14.63
2022-09-12T21:36:58.401Z,12.60
2022-09-12T21:39:44.825Z,11.98
2022-09-12T21:42:31.780Z,16.02
2022-09-12T21:45:18.460Z,10.93
2022-09-12T21:48:04.948Z,14.98
2022-09-12T21:50:51.527Z,9.35
2022-09-12T21:53:37.741Z,8.98
2022-09-12T21:56:23.961Z,11.68
2022-09-12T21:59:09.872Z,11.30
2022-09-12T22:01:55.893Z,11.23
2022-09-12T22:04:41.921Z,13.00
2022-09-12T22:07:28.368Z,10.23
2022-09-12T22:10:15.289Z,11.75
2022-09-12T22:13:01.764Z,12.35
2022-09-12T22:15:51.990Z,12.07
2022-09-12T22:18:38.548Z,15.60
2022-09-12T22:21:24.843Z,15.00
2022-09-12T22:24:29.154Z,9.23
2022-09-12T22:27:15.297Z,8.32
2022-09-12T22:30:01.477Z,8.38
2022-09-12T22:32:49.830Z,9.45
2022-09-12T22:35:36.293Z,8.63
2022-09-12T22:38:22.310Z,8.27
2022-09-12T22:41:11.177Z,9.25
2022-09-12T22:43:58.173Z,8.10
2022-09-12T22:46:45.082Z,8.02
2022-09-12T22:49:31.211Z,8.10
2022-09-12T22:52:17.184Z,7.95
2022-09-12T22:55:03.481Z,8.35
2022-09-12T22:57:49.776Z,7.07
2022-09-12T23:00:35.670Z,7.40
2022-09-12T23:03:21.708Z,10.82
2022-09-12T23:06:08.136Z,9.45
2022-09-12T23:08:54.419Z,7.97
2022-09-12T23:11:40.771Z,8.18
2022-09-12T23:14:26.485Z,6.15
2022-09-12T23:17:13.029Z,6.85
2022-09-12T23:19:59.150Z,7.07
2022-09-12T23:22:44.994Z,7.78
2022-09-12T23:25:31.019Z,7.07
2022-09-12T23:28:16.547Z,7.68
2022-09-12T23:31:03.069Z,6.35
2022-09-12T23:33:50.086Z,5.65
2022-09-12T23:36:36.416Z,11.00
2022-09-12T23:39:23.442Z,7.63
2022-09-12T23:42:09.341Z,5.88
2022-09-12T23:44:55.272Z,6.88
2022-09-12T23:47:41.503Z,7.05
2022-09-12T23:50:27.873Z,15.50
2022-09-12T23:53:15.022Z,5.10
2022-09-12T23:56:01.754Z,5.80
2022-09-12T23:58:48.314Z,8.43
